createdAt,value
2019-06-08T00:00:36.760Z,25.68
2019-06-08T00:03:04.070Z,28.75
2019-06-08T00:05:31.424Z,25.05
2019-06-08T00:07:58.761Z,26.27
2019-06-08T00:10:26.162Z,30.75
2019-06-08T00:12:53.588Z,26.48
2019-06-08T00:15:20.905Z,25.77
2019-06-08T00:17:48.247Z,30.65
2019-06-08T00:20:15.548Z,30.23
2019-06-08T00:22:43.040Z,27.77
2019-06-08T00:25:10.427Z,28.92
2019-06-08T00:27:37.744Z,30.48
2019-06-08T00:30:06.789Z,28.45
2019-06-08T00:32:34.216Z,27.80
2019-06-08T00:35:01.640Z,26.02
2019-06-08T00:37:29.055Z,25.72
2019-06-08T00:39:56.441Z,27.42
2019-06-08T00:42:23.782Z,22.30
2019-06-08T00:44:51.157Z,23.45
2019-06-08T00:47:18.949Z,27.55
2019-06-08T00:49:46.316Z,23.32
2019-06-08T00:52:13.725Z,23.80
2019-06-08T00:54:41.097Z,22.67
2019-06-08T00:57:08.555Z,22.82
2019-06-08T00:59:35.850Z,24.40
2019-06-08T01:02:03.253Z,25.62
2019-06-08T01:04:30.746Z,25.45
2019-06-08T01:06:58.173Z,25.52
2019-06-08T01:09:26.333Z,25.17
2019-06-08T01:11:53.639Z,23.80
2019-06-08T01:14:21.055Z,26.07
2019-06-08T01:16:48.497Z,28.55
2019-06-08T01:19:15.921Z,26.10
2019-06-08T01:21:43.302Z,28.12
2019-06-08T01:24:10.752Z,25.12
2019-06-08T01:26:38.093Z,26.85
2019-06-08T01:29:05.618Z,28.25
2019-06-08T01:31:32.959Z,27.05
2019-06-08T01:34:00.371Z,26.25
2019-06-08T01:36:29.052Z,28.15
2019-06-08T01:38:56.585Z,28.75
2019-06-08T01:41:25.373Z,28.23
2019-06-08T01:43:52.827Z,27.42
2019-06-08T01:46:20.237Z,28.25
2019-06-08T01:48:47.701Z,29.55
2019-06-08T01:51:15.017Z,25.08
2019-06-08T01:53:42.412Z,30.77
2019-06-08T01:56:09.936Z,31.33
2019-06-08T01:58:37.256Z,27.70
2019-06-08T02:01:04.663Z,27.15
2019-06-08T02:03:32.720Z,29.32
2019-06-08T02:06:00.201Z,30.80
2019-06-08T02:08:28.621Z,26.30
2019-06-08T02:10:56.471Z,29.82
2019-06-08T02:13:24.946Z,25.02
2019-06-08T02:15:52.334Z,27.17
2019-06-08T02:18:35.637Z,25.95
2019-06-08T02:20:49.998Z,25.25
2019-06-08T02:23:17.335Z,25.70
2019-06-08T02:25:44.642Z,27.62
2019-06-08T02:28:11.997Z,26.23
2019-06-08T02:30:41.915Z,24.75
2019-06-08T02:33:08.318Z,28.02
2019-06-08T02:35:37.661Z,26.73
2019-06-08T02:38:04.804Z,25.60
2019-06-08T02:40:33.093Z,26.35
2019-06-08T02:43:01.147Z,25.05
2019-06-08T02:45:29.747Z,26.65
2019-06-08T02:47:57.664Z,27.15
2019-06-08T02:50:43.426Z,26.30
2019-06-08T02:53:10.840Z,27.30
2019-06-08T02:55:39.441Z,27.22
2019-06-08T02:58:06.897Z,24.75
2019-06-08T03:00:35.462Z,27.67
2019-06-08T03:03:03.351Z,27.15
2019-06-08T03:05:31.882Z,26.35
2019-06-08T03:07:59.283Z,26.02
2019-06-08T03:10:26.631Z,28.17
2019-06-08T03:12:54.139Z,25.48
2019-06-08T03:15:23.104Z,26.77
2019-06-08T03:17:50.499Z,25.95
2019-06-08T03:20:17.924Z,28.75
2019-06-08T03:22:45.370Z,23.77
2019-06-08T03:25:12.700Z,24.32
2019-06-08T03:27:40.790Z,28.45
2019-06-08T03:30:17.535Z,23.92
2019-06-08T03:32:45.924Z,25.45
2019-06-08T03:35:06.629Z,25.17
2019-06-08T03:37:35.631Z,24.75
2019-06-08T03:40:03.113Z,22.25
2019-06-08T03:42:30.913Z,23.47
2019-06-08T03:44:58.331Z,23.10
2019-06-08T03:47:25.675Z,22.73
2019-06-08T03:49:57.320Z,24.37
2019-06-08T03:52:22.121Z,26.35
2019-06-08T03:54:49.422Z,23.77
2019-06-08T03:57:16.837Z,22.93
2019-06-08T03:59:46.186Z,24.02
2019-06-08T04:02:13.592Z,21.93
2019-06-08T04:04:41.850Z,23.70
2019-06-08T04:07:09.707Z,26.60
2019-06-08T04:09:37.745Z,24.60
2019-06-08T04:12:05.169Z,21.42
2019-06-08T04:14:32.996Z,20.27
2019-06-08T04:17:00.415Z,22.42
2019-06-08T04:19:27.881Z,21.62
2019-06-08T04:21:55.306Z,20.50
2019-06-08T04:24:22.660Z,18.95
2019-06-08T04:26:51.645Z,20.15
2019-06-08T04:29:19.045Z,18.95
2019-06-08T04:31:46.467Z,19.05
2019-06-08T04:34:13.784Z,18.80
2019-06-08T04:36:41.370Z,20.43
2019-06-08T04:39:10.187Z,19.45
2019-06-08T04:41:38.503Z,17.07
2019-06-08T04:44:06.381Z,17.55
2019-06-08T04:46:33.768Z,17.65
2019-06-08T04:49:01.119Z,17.05
2019-06-08T04:51:28.484Z,16.75
2019-06-08T04:53:55.867Z,17.00
2019-06-08T04:56:23.290Z,16.05
2019-06-08T04:58:51.351Z,16.02
2019-06-08T05:01:18.873Z,18.25
2019-06-08T05:03:47.790Z,15.70
2019-06-08T05:06:15.166Z,16.20
2019-06-08T05:08:43.156Z,15.53
2019-06-08T05:11:10.524Z,14.85
2019-06-08T05:13:39.160Z,14.38
2019-06-08T05:16:06.605Z,16.12
2019-06-08T05:18:33.949Z,13.78
2019-06-08T05:21:01.279Z,14.58
2019-06-08T05:23:28.690Z,14.18
2019-06-08T05:25:56.064Z,19.42
2019-06-08T05:28:23.412Z,14.20
2019-06-08T05:30:50.846Z,13.60
2019-06-08T05:33:18.164Z,13.32
2019-06-08T05:35:45.550Z,13.98
2019-06-08T05:38:12.813Z,12.88
2019-06-08T05:40:41.487Z,13.13
2019-06-08T05:43:08.817Z,12.63
2019-06-08T05:45:36.255Z,12.07
2019-06-08T05:48:03.573Z,11.73
2019-06-08T05:50:31.053Z,12.28
2019-06-08T05:52:58.639Z,12.13
2019-06-08T05:55:26.014Z,12.40
2019-06-08T05:57:53.354Z,12.20
2019-06-08T06:00:20.779Z,11.78
2019-06-08T06:02:48.922Z,11.63
2019-06-08T06:05:16.430Z,14.35
2019-06-08T06:07:44.708Z,12.28
2019-06-08T06:10:11.995Z,12.53
2019-06-08T06:12:40.852Z,11.55
2019-06-08T06:15:08.248Z,11.57
2019-06-08T06:17:35.637Z,10.95
2019-06-08T06:20:04.562Z,9.38
2019-06-08T06:22:31.941Z,8.88
2019-06-08T06:24:59.252Z,8.93
2019-06-08T06:27:26.651Z,10.50
2019-06-08T06:29:53.973Z,9.15
2019-06-08T06:32:21.499Z,10.63
2019-06-08T06:34:49.898Z,9.33
2019-06-08T06:37:17.410Z,9.13
2019-06-08T06:39:48.210Z,10.50
2019-06-08T06:42:15.615Z,8.80
2019-06-08T06:44:45.689Z,9.45
2019-06-08T06:47:12.102Z,8.85
2019-06-08T06:49:39.629Z,9.48
2019-06-08T06:52:07.081Z,9.78
2019-06-08T06:54:37.461Z,9.48
2019-06-08T06:57:04.900Z,9.08
2019-06-08T06:59:32.299Z,9.70
2019-06-08T07:01:59.604Z,9.48
2019-06-08T07:04:26.957Z,9.00
2019-06-08T07:06:54.481Z,9.43
2019-06-08T07:09:25.294Z,9.45
2019-06-08T07:11:52.995Z,9.20
2019-06-08T07:14:20.675Z,9.43
2019-06-08T07:16:51.917Z,9.63
2019-06-08T07:19:19.359Z,9.38
2019-06-08T07:21:48.221Z,9.98
2019-06-08T07:24:15.678Z,10.72
2019-06-08T07:26:43.284Z,11.30
2019-06-08T07:29:10.691Z,10.05
2019-06-08T07:31:37.966Z,10.25
2019-06-08T07:34:05.300Z,9.63
2019-06-08T07:36:32.651Z,9.80
2019-06-08T07:38:59.984Z,9.25
2019-06-08T07:41:27.474Z,8.93
2019-06-08T07:43:54.876Z,8.38
2019-06-08T07:46:22.271Z,9.75
2019-06-08T07:48:50.422Z,8.25
2019-06-08T07:51:17.911Z,7.55
2019-06-08T07:53:45.632Z,7.80
2019-06-08T07:56:13.011Z,8.50
2019-06-08T07:58:40.494Z,10.08
2019-06-08T08:01:08.439Z,6.80
2019-06-08T08:03:35.731Z,7.00
2019-06-08T08:06:03.210Z,7.28
2019-06-08T08:08:30.629Z,6.50
2019-06-08T08:10:58.741Z,7.00
2019-06-08T08:13:26.089Z,6.08
2019-06-08T08:15:57.060Z,6.67
2019-06-08T08:18:22.538Z,6.62
2019-06-08T08:20:51.077Z,7.33
2019-06-08T08:23:18.643Z,6.55
2019-06-08T08:25:47.407Z,7.85
2019-06-08T08:28:14.872Z,6.78
2019-06-08T08:30:42.285Z,8.18
2019-06-08T08:33:09.689Z,7.45
2019-06-08T08:35:38.087Z,7.15
2019-06-08T08:38:07.649Z,8.10
2019-06-08T08:40:38.792Z,5.75
2019-06-08T08:43:05.784Z,8.20
2019-06-08T08:45:33.184Z,7.20
2019-06-08T08:48:20.340Z,7.37
2019-06-08T08:50:32.597Z,9.40
2019-06-08T08:53:01.251Z,8.10
2019-06-08T08:55:28.958Z,7.15
2019-06-08T08:57:57.082Z,8.48
2019-06-08T09:00:25.324Z,7.90
2019-06-08T09:03:13.137Z,7.50
2019-06-08T09:05:23.322Z,7.90
2019-06-08T09:07:52.056Z,7.92
2019-06-08T09:10:19.944Z,8.80
2019-06-08T09:12:48.553Z,10.30
2019-06-08T09:15:19.005Z,9.58
2019-06-08T09:17:45.389Z,8.85
2019-06-08T09:20:15.878Z,9.00
2019-06-08T09:22:52.531Z,11.57
2019-06-08T09:25:13.545Z,9.10
2019-06-08T09:27:39.843Z,9.53
2019-06-08T09:30:08.301Z,9.10
2019-06-08T09:32:38.145Z,9.38
2019-06-08T09:38:04.887Z,10.48
2019-06-08T09:43:45.140Z,9.75
2019-06-08T09:46:12.495Z,9.10
2019-06-08T09:48:48.644Z,9.43
2019-06-08T09:51:18.726Z,8.93
2019-06-08T09:53:47.641Z,10.85
2019-06-08T09:56:18.310Z,10.40
2019-06-08T09:58:44.875Z,12.07
2019-06-08T10:01:12.579Z,8.60
2019-06-08T10:06:47.942Z,8.85
2019-06-08T10:09:15.527Z,9.38
2019-06-08T10:14:42.765Z,12.60
2019-06-08T10:17:22.029Z,12.50
2019-06-08T10:19:49.393Z,16.27
2019-06-08T10:22:21.105Z,16.82
2019-06-08T10:24:49.009Z,18.32
2019-06-08T10:27:18.751Z,18.32
2019-06-08T10:29:50.193Z,15.18
2019-06-08T10:32:19.241Z,15.00
2019-06-08T10:34:48.125Z,14.45
2019-06-08T10:37:15.580Z,14.38
2019-06-08T10:39:44.577Z,15.48
2019-06-08T10:42:12.024Z,18.27
2019-06-08T10:44:39.318Z,15.48
2019-06-08T10:47:09.973Z,14.47
2019-06-08T10:49:38.244Z,13.35
2019-06-08T10:52:07.478Z,15.10
2019-06-08T10:54:37.848Z,14.73
2019-06-08T10:57:07.371Z,15.35
2019-06-08T10:59:37.301Z,13.45
2019-06-08T11:02:06.243Z,17.85
2019-06-08T11:04:33.011Z,13.70
2019-06-08T11:07:05.603Z,16.87
2019-06-08T11:09:29.508Z,12.47
2019-06-08T11:11:58.380Z,14.85
2019-06-08T11:14:26.098Z,14.07
2019-06-08T11:16:56.473Z,13.93
2019-06-08T11:19:26.387Z,13.50
2019-06-08T11:21:52.954Z,14.40
2019-06-08T11:24:24.845Z,17.82
2019-06-08T11:26:49.435Z,13.60
2019-06-08T11:29:18.779Z,13.58
2019-06-08T11:31:48.399Z,13.80
2019-06-08T11:34:14.784Z,17.17
2019-06-08T11:36:42.294Z,11.30
2019-06-08T11:39:12.581Z,13.35
2019-06-08T11:41:40.353Z,13.43
2019-06-08T11:44:11.892Z,12.43
2019-06-08T11:46:38.431Z,12.40
2019-06-08T11:49:08.412Z,12.15
2019-06-08T11:51:37.693Z,14.33
2019-06-08T11:54:05.040Z,11.57
2019-06-08T11:56:32.876Z,12.60
2019-06-08T11:59:01.086Z,12.82
2019-06-08T12:01:28.581Z,12.30
2019-06-08T12:03:57.929Z,12.35
2019-06-08T12:06:24.995Z,10.50
2019-06-08T12:08:52.413Z,12.23
2019-06-08T12:11:23.053Z,11.50
2019-06-08T12:13:48.866Z,12.07
2019-06-08T12:16:21.467Z,12.43
2019-06-08T12:18:45.331Z,12.63
2019-06-08T12:21:13.318Z,12.98
2019-06-08T12:23:44.439Z,11.18
2019-06-08T12:26:12.273Z,13.90
2019-06-08T12:28:39.698Z,11.00
2019-06-08T12:31:12.059Z,11.10
2019-06-08T12:33:38.956Z,10.95
2019-06-08T12:36:06.019Z,10.95
2019-06-08T12:38:34.725Z,11.08
2019-06-08T12:41:02.598Z,12.18
2019-06-08T12:43:29.934Z,10.20
2019-06-08T12:45:58.069Z,8.38
2019-06-08T12:48:25.554Z,7.35
2019-06-08T12:50:52.861Z,6.62
2019-06-08T12:53:22.588Z,6.70
2019-06-08T12:55:49.256Z,8.10
2019-06-08T12:58:19.945Z,6.65
2019-06-08T13:00:48.059Z,8.05
2019-06-08T13:03:16.903Z,9.25
2019-06-08T13:05:44.385Z,5.85
2019-06-08T13:08:11.818Z,6.78
2019-06-08T13:10:39.604Z,3.72
2019-06-08T13:13:08.434Z,8.93
2019-06-08T13:15:38.376Z,8.80
2019-06-08T13:18:05.009Z,4.03
2019-06-08T13:20:32.433Z,3.52
2019-06-08T13:23:00.427Z,6.83
2019-06-08T13:25:37.547Z,4.80
2019-06-08T13:27:58.274Z,5.03
2019-06-08T13:30:28.909Z,6.00
2019-06-08T13:32:54.884Z,7.37
2019-06-08T13:35:22.540Z,7.08
2019-06-08T13:37:50.018Z,5.10
2019-06-08T13:40:20.150Z,5.90
2019-06-08T13:42:51.149Z,5.25
2019-06-08T13:45:18.817Z,8.15
2019-06-08T13:47:50.237Z,2.90
2019-06-08T13:50:19.046Z,6.78
2019-06-08T13:52:45.793Z,5.80
2019-06-08T13:55:34.591Z,2.62
2019-06-08T13:57:45.534Z,4.58
2019-06-08T14:00:13.403Z,4.42
2019-06-08T14:02:40.877Z,3.92
2019-06-08T14:05:08.549Z,4.78
2019-06-08T14:07:38.154Z,0.95
2019-06-08T14:10:06.109Z,5.33
2019-06-08T14:12:33.704Z,4.37
2019-06-08T14:15:01.087Z,5.78
2019-06-08T14:17:28.493Z,2.37
2019-06-08T14:19:55.879Z,5.08
2019-06-08T14:22:24.525Z,9.00
2019-06-08T14:24:52.247Z,3.42
2019-06-08T14:27:19.677Z,3.70
2019-06-08T14:29:48.509Z,3.85
2019-06-08T14:32:19.115Z,3.72
2019-06-08T14:34:47.996Z,2.62
2019-06-08T14:37:15.666Z,5.87
2019-06-08T14:39:43.005Z,7.25
2019-06-08T14:42:10.705Z,4.10
2019-06-08T14:44:38.240Z,2.15
2019-06-08T14:47:14.655Z,8.18
2019-06-08T14:49:43.113Z,1.55
2019-06-08T14:52:10.988Z,4.08
2019-06-08T14:54:38.638Z,1.17
2019-06-08T14:57:07.861Z,4.70
2019-06-08T14:59:35.366Z,3.08
2019-06-08T15:02:02.851Z,6.47
2019-06-08T15:04:36.290Z,0.98
2019-06-08T15:06:59.227Z,2.95
2019-06-08T15:09:27.650Z,6.03
2019-06-08T15:11:55.107Z,2.40
2019-06-08T15:14:23.611Z,1.37
2019-06-08T15:16:53.418Z,3.35
2019-06-08T15:19:22.127Z,1.30
2019-06-08T15:21:49.520Z,4.37
2019-06-08T15:24:18.586Z,3.55
2019-06-08T15:26:48.576Z,3.02
2019-06-08T15:29:14.894Z,3.12
2019-06-08T15:31:42.299Z,2.85
2019-06-08T15:34:10.753Z,1.32
2019-06-08T15:36:38.306Z,1.10
2019-06-08T15:39:07.814Z,1.42
2019-06-08T15:41:35.296Z,2.12
2019-06-08T15:44:02.619Z,2.58
2019-06-08T15:46:30.412Z,1.82
2019-06-08T15:48:57.819Z,2.30
2019-06-08T15:51:26.204Z,1.70
2019-06-08T15:53:57.868Z,2.10
2019-06-08T15:56:40.116Z,2.65
2019-06-08T15:58:55.427Z,1.75
2019-06-08T16:01:23.022Z,1.67
2019-06-08T16:03:50.564Z,3.72
2019-06-08T16:06:17.892Z,1.77
2019-06-08T16:08:45.766Z,2.35
2019-06-08T16:11:13.304Z,0.98
2019-06-08T16:13:40.669Z,3.45
2019-06-08T16:16:08.043Z,2.52
2019-06-08T16:18:35.975Z,1.50
2019-06-08T16:21:06.369Z,1.55
2019-06-08T16:23:33.783Z,1.40
2019-06-08T16:26:01.385Z,2.55
2019-06-08T16:28:30.386Z,1.77
2019-06-08T16:30:57.790Z,1.30
2019-06-08T16:33:25.234Z,1.82
2019-06-08T16:35:52.513Z,1.95
2019-06-08T16:38:19.850Z,3.25
2019-06-08T16:40:47.247Z,1.45
2019-06-08T16:43:15.785Z,1.40
2019-06-08T16:45:43.146Z,2.65
2019-06-08T16:48:10.515Z,1.50
2019-06-08T16:50:38.526Z,1.35
2019-06-08T16:53:05.959Z,3.67
2019-06-08T16:55:33.978Z,2.92
2019-06-08T16:58:01.648Z,1.25
2019-06-08T17:00:34.311Z,2.30
2019-06-08T17:02:58.126Z,1.60
2019-06-08T17:05:25.427Z,2.75
2019-06-08T17:07:52.840Z,1.90
2019-06-08T17:10:20.226Z,2.85
2019-06-08T17:12:47.596Z,2.33
2019-06-08T17:15:14.977Z,1.15
2019-06-08T17:17:44.262Z,1.45
2019-06-08T17:20:12.941Z,0.90
2019-06-08T17:22:40.923Z,4.05
2019-06-08T17:25:08.583Z,2.65
2019-06-08T17:27:36.795Z,4.00
2019-06-08T17:30:08.607Z,1.98
2019-06-08T17:32:35.868Z,0.75
2019-06-08T17:35:04.051Z,1.10
2019-06-08T17:37:31.690Z,1.35
2019-06-08T17:39:59.170Z,2.08
2019-06-08T17:42:26.475Z,1.87
2019-06-08T17:44:53.818Z,1.00
2019-06-08T17:47:23.986Z,1.10
2019-06-08T17:49:50.096Z,1.12
2019-06-08T17:52:17.396Z,1.10
2019-06-08T17:54:44.806Z,2.55
2019-06-08T17:57:12.203Z,2.02
2019-06-08T17:59:39.592Z,1.82
2019-06-08T18:02:08.121Z,3.05
2019-06-08T18:04:38.107Z,4.05
2019-06-08T18:07:07.058Z,1.72
2019-06-08T18:09:33.907Z,1.67
2019-06-08T18:12:01.352Z,0.90
2019-06-08T18:14:30.758Z,2.22
2019-06-08T18:16:57.854Z,3.08
2019-06-08T18:19:29.010Z,2.60
2019-06-08T18:22:02.975Z,1.35
2019-06-08T18:24:27.894Z,3.00
2019-06-08T18:26:54.380Z,3.33
2019-06-08T18:29:21.909Z,3.72
2019-06-08T18:31:49.251Z,2.70
2019-06-08T18:34:17.799Z,2.12
2019-06-08T18:36:47.822Z,2.62
2019-06-08T18:39:14.365Z,2.52
2019-06-08T18:41:42.609Z,3.47
2019-06-08T18:44:10.727Z,1.77
2019-06-08T18:46:40.340Z,1.45
2019-06-08T18:49:08.041Z,2.40
2019-06-08T18:51:37.758Z,1.47
2019-06-08T18:54:11.770Z,3.25
2019-06-08T18:56:33.407Z,2.45
2019-06-08T18:59:00.710Z,2.95
2019-06-08T19:01:28.091Z,3.25
2019-06-08T19:03:57.729Z,3.98
2019-06-08T19:06:24.668Z,3.65
2019-06-08T19:08:51.986Z,4.60
2019-06-08T19:11:19.439Z,3.05
2019-06-08T19:13:47.378Z,2.70
2019-06-08T19:16:14.822Z,3.52
2019-06-08T19:18:46.224Z,2.20
2019-06-08T19:21:11.684Z,4.90
2019-06-08T19:23:41.665Z,4.53
2019-06-08T19:26:08.040Z,3.83
2019-06-08T19:28:37.190Z,3.72
2019-06-08T19:31:04.348Z,3.33
2019-06-08T19:33:31.766Z,3.50
2019-06-08T19:35:59.111Z,3.75
2019-06-08T19:38:27.967Z,3.00
2019-06-08T19:40:57.264Z,4.20
2019-06-08T19:43:24.861Z,5.20
2019-06-08T19:45:53.845Z,5.58
2019-06-08T19:48:23.931Z,8.35
2019-06-08T19:50:54.224Z,3.60
2019-06-08T19:53:20.313Z,5.85
2019-06-08T19:55:51.144Z,2.75
2019-06-08T19:58:18.300Z,5.33
2019-06-08T20:00:52.278Z,2.90
2019-06-08T20:03:14.684Z,3.02
2019-06-08T20:05:42.890Z,2.40
2019-06-08T20:08:10.246Z,4.15
2019-06-08T20:10:43.045Z,3.40
2019-06-08T20:13:10.536Z,4.12
2019-06-08T20:15:40.681Z,4.00
2019-06-08T20:18:07.021Z,2.47
2019-06-08T20:20:34.408Z,5.67
2019-06-08T20:23:01.718Z,8.78
2019-06-08T20:25:29.336Z,10.80
2019-06-08T20:27:58.722Z,9.90
2019-06-08T20:30:28.021Z,4.40
2019-06-08T20:32:54.631Z,8.88
2019-06-08T20:35:21.962Z,5.40
2019-06-08T20:37:49.983Z,4.22
2019-06-08T20:40:18.021Z,4.97
2019-06-08T20:42:49.061Z,3.35
2019-06-08T20:45:14.421Z,3.77
2019-06-08T20:47:42.381Z,3.67
2019-06-08T20:50:09.819Z,3.75
2019-06-08T20:52:37.753Z,3.15
2019-06-08T20:55:07.724Z,4.85
2019-06-08T20:57:35.186Z,3.92
2019-06-08T21:00:08.440Z,3.90
2019-06-08T21:02:32.551Z,3.25
2019-06-08T21:04:59.908Z,6.40
2019-06-08T21:07:28.126Z,4.47
2019-06-08T21:09:58.102Z,5.80
2019-06-08T21:12:24.711Z,5.95
2019-06-08T21:14:52.664Z,9.85
2019-06-08T21:17:21.214Z,11.85
2019-06-08T21:19:48.842Z,12.00
2019-06-08T21:22:18.237Z,11.22
2019-06-08T21:24:46.785Z,9.25
2019-06-08T21:27:14.191Z,12.40
2019-06-08T21:29:49.459Z,8.73
2019-06-08T21:32:10.619Z,10.93
2019-06-08T21:34:38.083Z,8.18
2019-06-08T21:37:05.559Z,8.78
2019-06-08T21:39:35.910Z,8.85
2019-06-08T21:42:03.159Z,7.70
2019-06-08T21:44:30.649Z,8.43
2019-06-08T21:47:01.452Z,9.73
2019-06-08T21:49:28.609Z,10.23
2019-06-08T21:51:59.287Z,7.75
2019-06-08T21:54:27.046Z,8.58
2019-06-08T21:56:54.730Z,11.30
2019-06-08T21:59:22.105Z,7.10
2019-06-08T22:01:51.982Z,8.75
2019-06-08T22:04:18.531Z,5.92
2019-06-08T22:06:47.897Z,6.58
2019-06-08T22:09:14.889Z,8.30
2019-06-08T22:11:42.215Z,8.30
2019-06-08T22:14:09.537Z,8.45
2019-06-08T22:16:38.195Z,8.90
2019-06-08T22:19:07.646Z,7.67
2019-06-08T22:21:34.599Z,8.28
2019-06-08T22:24:01.916Z,7.30
2019-06-08T22:26:29.240Z,9.08
2019-06-08T22:28:58.416Z,6.40
2019-06-08T22:31:27.601Z,7.17
2019-06-08T22:33:55.919Z,8.58
2019-06-08T22:36:23.459Z,7.58
2019-06-08T22:38:52.826Z,6.40
2019-06-08T22:41:19.737Z,7.00
2019-06-08T22:43:48.139Z,10.75
2019-06-08T22:46:17.775Z,8.08
2019-06-08T22:48:44.599Z,7.95
2019-06-08T22:51:11.893Z,8.38
2019-06-08T22:53:39.570Z,9.45
2019-06-08T22:56:07.921Z,10.45
2019-06-08T22:58:37.217Z,7.80
2019-06-08T23:01:07.870Z,7.47
2019-06-08T23:03:33.420Z,8.08
2019-06-08T23:06:02.308Z,9.45
2019-06-08T23:08:29.703Z,6.37
2019-06-08T23:10:59.346Z,7.78
2019-06-08T23:13:28.320Z,8.20
2019-06-08T23:15:57.860Z,5.85
2019-06-08T23:18:23.928Z,7.72
2019-06-08T23:20:51.299Z,10.63
2019-06-08T23:23:18.626Z,5.47
2019-06-08T23:25:47.881Z,9.80
2019-06-08T23:28:15.019Z,8.35
2019-06-08T23:30:42.323Z,7.65
2019-06-08T23:33:11.450Z,15.90
2019-06-08T23:36:02.964Z,9.90
2019-06-08T23:38:09.136Z,9.98
2019-06-08T23:40:37.899Z,9.53
2019-06-08T23:43:05.939Z,8.83
2019-06-08T23:45:33.542Z,11.73
2019-06-08T23:48:01.223Z,11.78
2019-06-08T23:50:29.831Z,10.38
2019-06-08T23:52:59.021Z,7.33
2019-06-08T23:55:27.865Z,10.80
2019-06-08T23:57:55.184Z,10.80
